CES8635 ZUCK-ZULS
Flight info
| Callsign | CES8635 |
|---|---|
| Flight time | N/A |
| Altitude | 34100 |
| Route | URGEG6Y URGEG W80 WFX B213 LXA |
| Aircraft | A319/M-SDE3FGHIRWY/LB1 |
Departure
| Time | 2026-05-05 05:41 |
|---|---|
| Airport | Chongqing Jiangbei International Airport (ZUCK) |
Arrival
| Time | N/A |
|---|---|
| Airport | Lhasa Gonggar International Airport (ZULS) |
| Time | Latitude | Longitude | Altitude | Speed | Heading |
|---|---|---|---|---|---|
| 2026-05-05 04:55 | 29.73137 | 106.65701 | 1346 ft | 0 kts | 107° |
| 2026-05-05 05:21 | 29.73140 | 106.65688 | 1372 ft | 3 kts | 107° |
| 2026-05-05 05:22 | 29.73146 | 106.65666 | 1348 ft | 3 kts | 107° |
| 2026-05-05 05:22 | 29.73152 | 106.65645 | 1347 ft | 3 kts | 102° |
| 2026-05-05 05:22 | 29.73153 | 106.65623 | 1348 ft | 3 kts | 63° |
| 2026-05-05 05:22 | 29.73141 | 106.65608 | 1352 ft | 3 kts | 24° |
| 2026-05-05 05:23 | 29.73124 | 106.65599 | 1348 ft | 2 kts | 29° |
| 2026-05-05 05:23 | 29.73121 | 106.65597 | 1348 ft | 1 kts | 32° |
| 2026-05-05 05:26 | 29.73126 | 106.65601 | 1348 ft | 0 kts | 31° |
| 2026-05-05 05:26 | 29.73135 | 106.65607 | 1351 ft | 3 kts | 31° |
| 2026-05-05 05:26 | 29.73159 | 106.65622 | 1350 ft | 6 kts | 22° |
| 2026-05-05 05:27 | 29.73202 | 106.65635 | 1350 ft | 7 kts | 13° |
| 2026-05-05 05:27 | 29.73250 | 106.65631 | 1348 ft | 7 kts | 336° |
| 2026-05-05 05:27 | 29.73322 | 106.65571 | 1350 ft | 6 kts | 321° |
| 2026-05-05 05:28 | 29.73354 | 106.65540 | 1351 ft | 6 kts | 321° |
| 2026-05-05 05:28 | 29.73386 | 106.65506 | 1352 ft | 9 kts | 305° |
| 2026-05-05 05:28 | 29.73364 | 106.65451 | 1353 ft | 9 kts | 204° |
| 2026-05-05 05:28 | 29.73314 | 106.65414 | 1352 ft | 9 kts | 246° |
| 2026-05-05 05:29 | 29.73333 | 106.65356 | 1353 ft | 8 kts | 326° |
| 2026-05-05 05:29 | 29.73384 | 106.65363 | 1353 ft | 9 kts | 17° |
| 2026-05-05 05:29 | 29.73447 | 106.65386 | 1353 ft | 10 kts | 18° |
| 2026-05-05 05:29 | 29.73516 | 106.65421 | 1353 ft | 12 kts | 32° |
| 2026-05-05 05:30 | 29.73589 | 106.65474 | 1352 ft | 13 kts | 28° |
| 2026-05-05 05:30 | 29.73678 | 106.65521 | 1351 ft | 15 kts | 24° |
| 2026-05-05 05:30 | 29.73778 | 106.65571 | 1352 ft | 17 kts | 23° |
| 2026-05-05 05:30 | 29.73824 | 106.65594 | 1350 ft | 3 kts | 24° |
| 2026-05-05 05:31 | 29.73858 | 106.65614 | 1349 ft | 7 kts | 48° |
| 2026-05-05 05:31 | 29.73850 | 106.65685 | 1350 ft | 11 kts | 108° |
| 2026-05-05 05:31 | 29.73822 | 106.65788 | 1344 ft | 15 kts | 108° |
| 2026-05-05 05:31 | 29.73792 | 106.65896 | 1346 ft | 14 kts | 107° |
| 2026-05-05 05:32 | 29.73762 | 106.66007 | 1343 ft | 13 kts | 107° |
| 2026-05-05 05:32 | 29.73733 | 106.66117 | 1337 ft | 16 kts | 108° |
| 2026-05-05 05:32 | 29.73696 | 106.66254 | 1331 ft | 20 kts | 107° |
| 2026-05-05 05:32 | 29.73673 | 106.66344 | 1328 ft | 10 kts | 107° |
| 2026-05-05 05:33 | 29.73649 | 106.66437 | 1326 ft | 14 kts | 107° |
| 2026-05-05 05:33 | 29.73618 | 106.66552 | 1327 ft | 16 kts | 107° |
| 2026-05-05 05:33 | 29.73594 | 106.66658 | 1322 ft | 10 kts | 86° |
| 2026-05-05 05:33 | 29.73653 | 106.66704 | 1321 ft | 12 kts | 15° |
| 2026-05-05 05:34 | 29.73738 | 106.66734 | 1320 ft | 14 kts | 17° |
| 2026-05-05 05:34 | 29.73810 | 106.66759 | 1320 ft | 9 kts | 16° |
| 2026-05-05 05:34 | 29.73877 | 106.66781 | 1319 ft | 11 kts | 15° |
| 2026-05-05 05:34 | 29.73956 | 106.66808 | 1319 ft | 13 kts | 17° |
| 2026-05-05 05:35 | 29.74045 | 106.66838 | 1318 ft | 14 kts | 16° |
| 2026-05-05 05:35 | 29.74143 | 106.66871 | 1318 ft | 15 kts | 17° |
| 2026-05-05 05:35 | 29.74248 | 106.66909 | 1317 ft | 17 kts | 17° |
| 2026-05-05 05:35 | 29.74365 | 106.66950 | 1316 ft | 18 kts | 18° |
| 2026-05-05 05:36 | 29.74456 | 106.66984 | 1315 ft | 11 kts | 18° |
| 2026-05-05 05:36 | 29.74534 | 106.67012 | 1315 ft | 13 kts | 17° |
| 2026-05-05 05:36 | 29.74624 | 106.67043 | 1313 ft | 14 kts | 16° |
| 2026-05-05 05:36 | 29.74715 | 106.67074 | 1313 ft | 8 kts | 20° |
| 2026-05-05 05:37 | 29.74737 | 106.67131 | 1312 ft | 9 kts | 103° |
| 2026-05-05 05:37 | 29.74730 | 106.67156 | 1312 ft | 0 kts | 108° |
| 2026-05-05 05:38 | 29.74730 | 106.67155 | 1312 ft | 0 kts | 108° |
| 2026-05-05 05:38 | 29.74729 | 106.67161 | 1312 ft | 2 kts | 108° |
| 2026-05-05 05:39 | 29.74720 | 106.67191 | 1311 ft | 6 kts | 108° |
| 2026-05-05 05:39 | 29.74705 | 106.67245 | 1311 ft | 8 kts | 107° |
| 2026-05-05 05:39 | 29.74666 | 106.67260 | 1312 ft | 7 kts | 197° |
| 2026-05-05 05:39 | 29.74662 | 106.67259 | 1312 ft | 0 kts | 197° |
| 2026-05-05 05:40 | 29.74610 | 106.67241 | 1312 ft | 27 kts | 197° |
| 2026-05-05 05:41 | 29.74230 | 106.67110 | 1315 ft | 86 kts | 197° |
| 2026-05-05 05:41 | 29.73487 | 106.66853 | 1320 ft | 139 kts | 197° |
| 2026-05-05 05:41 | 29.72387 | 106.66476 | 1402 ft | 180 kts | 195° |
| 2026-05-05 05:41 | 29.71190 | 106.66068 | 1973 ft | 182 kts | 191° |
| 2026-05-05 05:42 | 29.69928 | 106.65912 | 2617 ft | 184 kts | 180° |
| 2026-05-05 05:42 | 29.68577 | 106.65870 | 2976 ft | 204 kts | 178° |
| 2026-05-05 05:42 | 29.67066 | 106.65853 | 3460 ft | 230 kts | 179° |
| 2026-05-05 05:42 | 29.65379 | 106.65825 | 4049 ft | 254 kts | 180° |
| 2026-05-05 05:43 | 29.63564 | 106.65779 | 4870 ft | 265 kts | 180° |
| 2026-05-05 05:43 | 29.61704 | 106.65720 | 5841 ft | 268 kts | 181° |
| 2026-05-05 05:43 | 29.59827 | 106.65697 | 6764 ft | 272 kts | 175° |
| 2026-05-05 05:43 | 29.58014 | 106.66338 | 7532 ft | 278 kts | 150° |
| 2026-05-05 05:44 | 29.56585 | 106.67841 | 8295 ft | 286 kts | 125° |
| 2026-05-05 05:44 | 29.55815 | 106.69980 | 9056 ft | 295 kts | 104° |
| 2026-05-05 05:44 | 29.55370 | 106.72301 | 9841 ft | 300 kts | 103° |
| 2026-05-05 05:44 | 29.54913 | 106.74692 | 10283 ft | 318 kts | 103° |
| 2026-05-05 05:45 | 29.54419 | 106.77261 | 10515 ft | 341 kts | 103° |
| 2026-05-05 05:45 | 29.53887 | 106.80013 | 10664 ft | 364 kts | 103° |
| 2026-05-05 05:45 | 29.53326 | 106.82906 | 11029 ft | 376 kts | 103° |
| 2026-05-05 05:45 | 29.52977 | 106.85892 | 11596 ft | 382 kts | 90° |
| 2026-05-05 05:46 | 29.53376 | 106.88912 | 12215 ft | 385 kts | 72° |
| 2026-05-05 05:46 | 29.54545 | 106.91680 | 12846 ft | 387 kts | 54° |
| 2026-05-05 05:46 | 29.56350 | 106.93914 | 13474 ft | 388 kts | 37° |
| 2026-05-05 05:46 | 29.58676 | 106.95472 | 14076 ft | 389 kts | 20° |
| 2026-05-05 05:47 | 29.61255 | 106.96419 | 14658 ft | 390 kts | 15° |
| 2026-05-05 05:47 | 29.63863 | 106.97319 | 15237 ft | 392 kts | 15° |
| 2026-05-05 05:47 | 29.66483 | 106.98221 | 15815 ft | 394 kts | 15° |
| 2026-05-05 05:47 | 29.69119 | 106.99133 | 16405 ft | 397 kts | 15° |
| 2026-05-05 05:48 | 29.71770 | 107.00056 | 16995 ft | 399 kts | 15° |
| 2026-05-05 05:48 | 29.74437 | 107.00983 | 17577 ft | 401 kts | 14° |
| 2026-05-05 05:48 | 29.77114 | 107.01918 | 18169 ft | 403 kts | 15° |
| 2026-05-05 05:48 | 29.79806 | 107.02864 | 18666 ft | 406 kts | 14° |
| 2026-05-05 05:49 | 29.82556 | 107.03577 | 19132 ft | 406 kts | 4° |
| 2026-05-05 05:49 | 29.85382 | 107.03563 | 19594 ft | 406 kts | 351° |
| 2026-05-05 05:49 | 29.88116 | 107.02809 | 20049 ft | 405 kts | 338° |
| 2026-05-05 05:49 | 29.90642 | 107.01374 | 20495 ft | 406 kts | 326° |
| 2026-05-05 05:50 | 29.92854 | 106.99351 | 20925 ft | 407 kts | 317° |
| 2026-05-05 05:50 | 29.94956 | 106.97148 | 21346 ft | 409 kts | 316° |
| 2026-05-05 05:50 | 29.97039 | 106.94963 | 21792 ft | 411 kts | 316° |
| 2026-05-05 05:50 | 29.99155 | 106.92741 | 22201 ft | 413 kts | 316° |
| 2026-05-05 05:51 | 30.01282 | 106.90507 | 22613 ft | 415 kts | 316° |
| 2026-05-05 05:51 | 30.03426 | 106.88257 | 23010 ft | 417 kts | 316° |
| 2026-05-05 05:51 | 30.05577 | 106.86002 | 23400 ft | 419 kts | 316° |
| 2026-05-05 05:51 | 30.07738 | 106.83734 | 23726 ft | 421 kts | 316° |
| 2026-05-05 05:52 | 30.09909 | 106.81453 | 24067 ft | 422 kts | 316° |
| 2026-05-05 05:52 | 30.12083 | 106.79164 | 24414 ft | 423 kts | 316° |
| 2026-05-05 05:52 | 30.14261 | 106.76867 | 24754 ft | 425 kts | 316° |
| 2026-05-05 05:52 | 30.16441 | 106.74564 | 25105 ft | 425 kts | 316° |
| 2026-05-05 05:53 | 30.18626 | 106.72255 | 25441 ft | 426 kts | 315° |
| 2026-05-05 05:53 | 30.20818 | 106.69936 | 25762 ft | 428 kts | 315° |
| 2026-05-05 05:53 | 30.23020 | 106.67608 | 26094 ft | 429 kts | 315° |
| 2026-05-05 05:53 | 30.25228 | 106.65273 | 26391 ft | 431 kts | 315° |
| 2026-05-05 05:54 | 30.27440 | 106.62930 | 26701 ft | 432 kts | 315° |
| 2026-05-05 05:54 | 30.29657 | 106.60582 | 27010 ft | 433 kts | 315° |
| 2026-05-05 05:54 | 30.31883 | 106.58227 | 27313 ft | 434 kts | 315° |
| 2026-05-05 05:54 | 30.34118 | 106.55862 | 27608 ft | 435 kts | 315° |
| 2026-05-05 05:55 | 30.36352 | 106.53495 | 27892 ft | 437 kts | 315° |
| 2026-05-05 05:55 | 30.38593 | 106.51116 | 28265 ft | 436 kts | 315° |
| 2026-05-05 05:55 | 30.40819 | 106.48749 | 28704 ft | 433 kts | 315° |
| 2026-05-05 05:55 | 30.43031 | 106.46392 | 29155 ft | 431 kts | 315° |
| 2026-05-05 05:56 | 30.45238 | 106.44040 | 29624 ft | 429 kts | 315° |
| 2026-05-05 05:56 | 30.47431 | 106.41704 | 30047 ft | 427 kts | 315° |
| 2026-05-05 05:56 | 30.48879 | 106.40163 | 30299 ft | 426 kts | 315° |
| 2026-05-05 05:56 | 30.51797 | 106.37059 | 30785 ft | 424 kts | 315° |
| 2026-05-05 05:57 | 30.53233 | 106.35528 | 31015 ft | 424 kts | 315° |
| 2026-05-05 05:57 | 30.55373 | 106.33190 | 31374 ft | 421 kts | 311° |
| 2026-05-05 05:57 | 30.57148 | 106.30504 | 31717 ft | 419 kts | 300° |
| 2026-05-05 05:57 | 30.58399 | 106.27454 | 31916 ft | 419 kts | 290° |
| 2026-05-05 05:58 | 30.59064 | 106.24161 | 31961 ft | 421 kts | 278° |
| 2026-05-05 05:58 | 30.59111 | 106.20755 | 31946 ft | 425 kts | 268° |
| 2026-05-05 05:58 | 30.58402 | 106.13926 | 31960 ft | 426 kts | 266° |
| 2026-05-05 05:59 | 30.57702 | 106.07096 | 31959 ft | 426 kts | 266° |
| 2026-05-05 05:59 | 30.57006 | 106.00274 | 31964 ft | 426 kts | 266° |
| 2026-05-05 06:00 | 30.56304 | 105.93440 | 31960 ft | 426 kts | 266° |
| 2026-05-05 06:00 | 30.55594 | 105.86615 | 31955 ft | 426 kts | 266° |
| 2026-05-05 06:01 | 30.54872 | 105.79746 | 31945 ft | 434 kts | 267° |
| 2026-05-05 06:01 | 30.54140 | 105.72780 | 31944 ft | 435 kts | 267° |
| 2026-05-05 06:02 | 30.53408 | 105.65861 | 31939 ft | 435 kts | 266° |
| 2026-05-05 06:02 | 30.52660 | 105.58898 | 31947 ft | 435 kts | 266° |
| 2026-05-05 06:03 | 30.51908 | 105.51932 | 31941 ft | 435 kts | 266° |
| 2026-05-05 06:03 | 30.51163 | 105.44958 | 31952 ft | 435 kts | 266° |
| 2026-05-05 06:04 | 30.50417 | 105.37989 | 31943 ft | 435 kts | 266° |
| 2026-05-05 06:04 | 30.49856 | 105.31024 | 31939 ft | 431 kts | 274° |
| 2026-05-05 06:05 | 30.50530 | 105.24153 | 31942 ft | 429 kts | 280° |
| 2026-05-05 06:05 | 30.51322 | 105.17289 | 31943 ft | 430 kts | 280° |
| 2026-05-05 06:06 | 30.52105 | 105.10420 | 31943 ft | 430 kts | 280° |
| 2026-05-05 06:06 | 30.52886 | 105.03545 | 31943 ft | 430 kts | 280° |
| 2026-05-05 06:07 | 30.53662 | 104.96714 | 31942 ft | 430 kts | 280° |
| 2026-05-05 06:07 | 30.54441 | 104.89833 | 31944 ft | 430 kts | 280° |
| 2026-05-05 06:08 | 30.55221 | 104.82953 | 31940 ft | 430 kts | 280° |
| 2026-05-05 06:08 | 30.55992 | 104.76061 | 31941 ft | 431 kts | 280° |
| 2026-05-05 06:09 | 30.56847 | 104.69185 | 31941 ft | 430 kts | 283° |
| 2026-05-05 06:09 | 30.58092 | 104.62392 | 31946 ft | 430 kts | 285° |
| 2026-05-05 06:10 | 30.59455 | 104.55629 | 31942 ft | 431 kts | 285° |
| 2026-05-05 06:10 | 30.60528 | 104.48780 | 31936 ft | 435 kts | 275° |
| 2026-05-05 06:11 | 30.60199 | 104.41733 | 31933 ft | 439 kts | 269° |
| 2026-05-05 06:11 | 30.59742 | 104.34667 | 31938 ft | 439 kts | 269° |
| 2026-05-05 06:12 | 30.59297 | 104.27598 | 31929 ft | 439 kts | 269° |
| 2026-05-05 06:12 | 30.58849 | 104.20525 | 31928 ft | 439 kts | 269° |
| 2026-05-05 06:13 | 30.58445 | 104.13498 | 31922 ft | 439 kts | 269° |
| 2026-05-05 06:13 | 30.58050 | 104.06420 | 31920 ft | 440 kts | 269° |
| 2026-05-05 06:14 | 30.57637 | 103.99336 | 31921 ft | 440 kts | 269° |
| 2026-05-05 06:14 | 30.57989 | 103.92325 | 31921 ft | 434 kts | 285° |
| 2026-05-05 06:15 | 30.59779 | 103.85669 | 31923 ft | 432 kts | 290° |
| 2026-05-05 06:15 | 30.61630 | 103.79027 | 31926 ft | 432 kts | 289° |
| 2026-05-05 06:16 | 30.63473 | 103.72384 | 31931 ft | 433 kts | 289° |
| 2026-05-05 06:16 | 30.65288 | 103.65710 | 31943 ft | 433 kts | 288° |
| 2026-05-05 06:17 | 30.66922 | 103.59026 | 31957 ft | 433 kts | 287° |
| 2026-05-05 06:17 | 30.68504 | 103.52272 | 31968 ft | 433 kts | 287° |
| 2026-05-05 06:18 | 30.70101 | 103.45535 | 31978 ft | 432 kts | 287° |
| 2026-05-05 06:18 | 30.71731 | 103.38806 | 31993 ft | 432 kts | 288° |
| 2026-05-05 06:19 | 30.73358 | 103.32076 | 32005 ft | 433 kts | 287° |
| 2026-05-05 06:19 | 30.74977 | 103.25337 | 32021 ft | 433 kts | 287° |
| 2026-05-05 06:20 | 30.76589 | 103.18602 | 32026 ft | 432 kts | 287° |
| 2026-05-05 06:20 | 30.78193 | 103.11866 | 32031 ft | 433 kts | 287° |
| 2026-05-05 06:21 | 30.79792 | 103.05170 | 32036 ft | 433 kts | 287° |
| 2026-05-05 06:21 | 30.80565 | 102.98229 | 32033 ft | 438 kts | 271° |
| 2026-05-05 06:22 | 30.80430 | 102.91153 | 32031 ft | 438 kts | 271° |
| 2026-05-05 06:22 | 30.80309 | 102.84074 | 32021 ft | 437 kts | 271° |
| 2026-05-05 06:23 | 30.80188 | 102.77000 | 32014 ft | 437 kts | 271° |
| 2026-05-05 06:23 | 30.80056 | 102.69935 | 32005 ft | 438 kts | 271° |
| 2026-05-05 06:24 | 30.79915 | 102.62855 | 31996 ft | 438 kts | 271° |
| 2026-05-05 06:24 | 30.79773 | 102.55780 | 31989 ft | 438 kts | 271° |
| 2026-05-05 06:25 | 30.79625 | 102.48702 | 31986 ft | 438 kts | 271° |
| 2026-05-05 06:25 | 30.79474 | 102.41621 | 31981 ft | 438 kts | 271° |
| 2026-05-05 06:26 | 30.79321 | 102.34602 | 31961 ft | 437 kts | 270° |
| 2026-05-05 06:26 | 30.79173 | 102.27545 | 31950 ft | 436 kts | 270° |
| 2026-05-05 06:27 | 30.78931 | 102.16962 | 31929 ft | 436 kts | 270° |
| 2026-05-05 06:28 | 30.78760 | 102.09913 | 31919 ft | 436 kts | 270° |
| 2026-05-05 06:28 | 30.78590 | 102.02868 | 31908 ft | 436 kts | 270° |
| 2026-05-05 06:29 | 30.78420 | 101.95813 | 31901 ft | 436 kts | 270° |
| 2026-05-05 06:29 | 30.78400 | 101.88780 | 31901 ft | 435 kts | 276° |
| 2026-05-05 06:30 | 30.78994 | 101.81787 | 31903 ft | 434 kts | 276° |
| 2026-05-05 06:30 | 30.79581 | 101.74792 | 31909 ft | 434 kts | 276° |
| 2026-05-05 06:31 | 30.80158 | 101.67807 | 31912 ft | 434 kts | 276° |
| 2026-05-05 06:31 | 30.80733 | 101.60804 | 31926 ft | 435 kts | 276° |
| 2026-05-05 06:32 | 30.81303 | 101.53809 | 31925 ft | 434 kts | 276° |
| 2026-05-05 06:32 | 30.81866 | 101.46823 | 31925 ft | 434 kts | 276° |
| 2026-05-05 06:33 | 30.82424 | 101.39844 | 31921 ft | 433 kts | 276° |
| 2026-05-05 06:33 | 30.82983 | 101.32909 | 31911 ft | 433 kts | 276° |
| 2026-05-05 06:34 | 30.83542 | 101.25930 | 31910 ft | 433 kts | 276° |
| 2026-05-05 06:34 | 30.84095 | 101.18952 | 31902 ft | 432 kts | 276° |
| 2026-05-05 06:35 | 30.84642 | 101.11986 | 31897 ft | 432 kts | 276° |
| 2026-05-05 06:35 | 30.85082 | 101.06268 | 31889 ft | 432 kts | 275° |
| 2026-05-05 06:38 | 30.85208 | 101.04664 | 31862 ft | 432 kts | 275° |
| 2026-05-05 06:38 | 30.85220 | 101.04506 | 31859 ft | 432 kts | 275° |
| 2026-05-05 06:39 | 30.85250 | 101.04127 | 31851 ft | 432 kts | 275° |
| 2026-05-05 06:40 | 30.85490 | 101.01038 | 31873 ft | 433 kts | 275° |
| 2026-05-05 06:48 | 30.85607 | 100.99254 | 32304 ft | 422 kts | 275° |
| 2026-05-05 06:49 | 30.85839 | 100.95864 | 32572 ft | 419 kts | 275° |
| 2026-05-05 06:49 | 30.86097 | 100.92474 | 32029 ft | 423 kts | 276° |
| 2026-05-05 06:49 | 30.86374 | 100.89043 | 31847 ft | 428 kts | 276° |
| 2026-05-05 06:50 | 30.86936 | 100.82114 | 31877 ft | 432 kts | 276° |
| 2026-05-05 06:50 | 30.87470 | 100.75153 | 31879 ft | 432 kts | 275° |
| 2026-05-05 06:51 | 30.87984 | 100.68194 | 31878 ft | 431 kts | 275° |
| 2026-05-05 06:51 | 30.88492 | 100.61283 | 31875 ft | 432 kts | 275° |
| 2026-05-05 06:52 | 30.89011 | 100.54321 | 31870 ft | 431 kts | 275° |
| 2026-05-05 06:52 | 30.89023 | 100.54164 | 31866 ft | 431 kts | 275° |
| 2026-05-05 06:53 | 30.89047 | 100.53839 | 31862 ft | 431 kts | 275° |
| 2026-05-05 06:53 | 30.89208 | 100.51660 | 31863 ft | 431 kts | 275° |
| 2026-05-05 07:03 | 30.89418 | 100.48755 | 31791 ft | 434 kts | 275° |
| 2026-05-05 07:04 | 30.89566 | 100.46708 | 31851 ft | 434 kts | 275° |
| 2026-05-05 07:23 | 30.89648 | 100.45622 | 32115 ft | 422 kts | 275° |
| 2026-05-05 07:23 | 30.89898 | 100.42276 | 33102 ft | 406 kts | 275° |
| 2026-05-05 07:24 | 30.90129 | 100.39072 | 34204 ft | 387 kts | 276° |
| 2026-05-05 07:24 | 30.90345 | 100.36035 | 35270 ft | 366 kts | 275° |
| 2026-05-05 07:24 | 30.90550 | 100.33167 | 36378 ft | 344 kts | 276° |
| 2026-05-05 07:24 | 30.90749 | 100.30388 | 36723 ft | 346 kts | 276° |
| 2026-05-05 07:25 | 30.90951 | 100.27588 | 36921 ft | 348 kts | 276° |
| 2026-05-05 07:25 | 30.91153 | 100.24771 | 37223 ft | 351 kts | 276° |
| 2026-05-05 07:25 | 30.91355 | 100.21975 | 37545 ft | 350 kts | 276° |
| 2026-05-05 07:25 | 30.91556 | 100.19149 | 37796 ft | 351 kts | 276° |
| 2026-05-05 07:26 | 30.91756 | 100.16312 | 38044 ft | 352 kts | 276° |
| 2026-05-05 07:26 | 30.91956 | 100.13465 | 38251 ft | 353 kts | 276° |
| 2026-05-05 07:26 | 30.92156 | 100.10613 | 38569 ft | 353 kts | 276° |
| 2026-05-05 07:26 | 30.92354 | 100.07762 | 38812 ft | 354 kts | 276° |
| 2026-05-05 07:27 | 30.92552 | 100.04896 | 39097 ft | 355 kts | 275° |
| 2026-05-05 07:27 | 30.92752 | 100.02025 | 39243 ft | 356 kts | 275° |
| 2026-05-05 07:27 | 30.92953 | 99.99141 | 39298 ft | 358 kts | 275° |
| 2026-05-05 07:27 | 30.93170 | 99.96249 | 39471 ft | 359 kts | 276° |
| 2026-05-05 07:28 | 30.93403 | 99.93354 | 39632 ft | 359 kts | 276° |
| 2026-05-05 07:28 | 30.93640 | 99.90486 | 39782 ft | 361 kts | 276° |
| 2026-05-05 07:28 | 30.93880 | 99.87574 | 39949 ft | 362 kts | 276° |
| 2026-05-05 07:28 | 30.94117 | 99.84654 | 40098 ft | 362 kts | 275° |
| 2026-05-05 07:29 | 30.94351 | 99.81730 | 40240 ft | 363 kts | 275° |
| 2026-05-05 07:29 | 30.94583 | 99.78796 | 40374 ft | 364 kts | 275° |
| 2026-05-05 07:29 | 30.94812 | 99.75852 | 40514 ft | 365 kts | 275° |
| 2026-05-05 07:29 | 30.95041 | 99.72902 | 40635 ft | 366 kts | 275° |
| 2026-05-05 07:30 | 30.95270 | 99.69946 | 40763 ft | 367 kts | 275° |
| 2026-05-05 07:30 | 30.95727 | 99.64018 | 40994 ft | 368 kts | 275° |
| 2026-05-05 07:30 | 30.95956 | 99.61039 | 41098 ft | 369 kts | 275° |
| 2026-05-05 07:31 | 30.96183 | 99.58061 | 41217 ft | 370 kts | 275° |
| 2026-05-05 07:31 | 30.96411 | 99.55068 | 41301 ft | 371 kts | 274° |
| 2026-05-05 07:31 | 30.96866 | 99.49073 | 41461 ft | 372 kts | 274° |
| 2026-05-05 07:32 | 30.97321 | 99.43055 | 41646 ft | 374 kts | 274° |
| 2026-05-05 07:32 | 30.97781 | 99.37058 | 41770 ft | 375 kts | 274° |
| 2026-05-05 07:33 | 30.98012 | 99.34025 | 41875 ft | 376 kts | 274° |
| 2026-05-05 07:33 | 30.98241 | 99.30992 | 41907 ft | 376 kts | 274° |
| 2026-05-05 07:33 | 30.98696 | 99.24903 | 42097 ft | 378 kts | 274° |
| 2026-05-05 07:34 | 30.98921 | 99.21848 | 42200 ft | 379 kts | 274° |
| 2026-05-05 07:34 | 30.99144 | 99.18783 | 42310 ft | 380 kts | 274° |
| 2026-05-05 07:34 | 30.99367 | 99.15719 | 42484 ft | 380 kts | 274° |
| 2026-05-05 07:34 | 30.99593 | 99.12651 | 42531 ft | 380 kts | 274° |
| 2026-05-05 07:35 | 30.99821 | 99.09560 | 41949 ft | 385 kts | 274° |
| 2026-05-05 07:35 | 31.00047 | 99.06449 | 41472 ft | 386 kts | 274° |
| 2026-05-05 07:35 | 31.00273 | 99.03330 | 41033 ft | 385 kts | 274° |
| 2026-05-05 07:35 | 31.00499 | 99.00217 | 40491 ft | 386 kts | 275° |
| 2026-05-05 07:36 | 31.00725 | 98.97098 | 39990 ft | 386 kts | 274° |
| 2026-05-05 07:36 | 31.00947 | 98.93968 | 39418 ft | 388 kts | 274° |
| 2026-05-05 07:36 | 31.01167 | 98.90866 | 38893 ft | 390 kts | 275° |
| 2026-05-05 07:36 | 31.01391 | 98.87721 | 38371 ft | 390 kts | 275° |
| 2026-05-05 07:37 | 31.01617 | 98.84569 | 37759 ft | 391 kts | 275° |
| 2026-05-05 07:37 | 31.01845 | 98.81407 | 37162 ft | 393 kts | 275° |
| 2026-05-05 07:37 | 31.02074 | 98.78223 | 36553 ft | 395 kts | 275° |
| 2026-05-05 07:37 | 31.02301 | 98.75018 | 35881 ft | 398 kts | 275° |
| 2026-05-05 07:38 | 31.02529 | 98.71790 | 35172 ft | 402 kts | 274° |
| 2026-05-05 07:38 | 31.02756 | 98.68530 | 34549 ft | 404 kts | 274° |
| 2026-05-05 07:38 | 31.02983 | 98.65255 | 33909 ft | 407 kts | 274° |
| 2026-05-05 07:38 | 31.03234 | 98.61950 | 33133 ft | 411 kts | 275° |
| 2026-05-05 07:39 | 31.03513 | 98.58610 | 32273 ft | 416 kts | 275° |
| 2026-05-05 07:39 | 31.03809 | 98.55237 | 31890 ft | 421 kts | 275° |
| 2026-05-05 07:39 | 31.04109 | 98.51827 | 31711 ft | 424 kts | 275° |
| 2026-05-05 07:39 | 31.04401 | 98.48405 | 31734 ft | 424 kts | 275° |
| 2026-05-05 07:40 | 31.04971 | 98.41555 | 31738 ft | 425 kts | 274° |
| 2026-05-05 07:40 | 31.05522 | 98.34738 | 31740 ft | 425 kts | 274° |
| 2026-05-05 07:41 | 31.06073 | 98.27883 | 31743 ft | 424 kts | 274° |
| 2026-05-05 07:41 | 31.06631 | 98.21033 | 31744 ft | 424 kts | 274° |
| 2026-05-05 07:42 | 31.07183 | 98.14191 | 31752 ft | 423 kts | 274° |
| 2026-05-05 07:42 | 31.07731 | 98.07354 | 31752 ft | 423 kts | 274° |
| 2026-05-05 07:43 | 31.08279 | 98.00521 | 31746 ft | 423 kts | 274° |
| 2026-05-05 07:43 | 31.08827 | 97.93692 | 31748 ft | 423 kts | 274° |
| 2026-05-05 07:44 | 31.09375 | 97.86860 | 31756 ft | 423 kts | 274° |
| 2026-05-05 07:44 | 31.09914 | 97.80028 | 31759 ft | 423 kts | 274° |
| 2026-05-05 07:45 | 31.10443 | 97.73249 | 31758 ft | 422 kts | 274° |
| 2026-05-05 07:45 | 31.10972 | 97.66417 | 31756 ft | 422 kts | 274° |
| 2026-05-05 07:46 | 31.11504 | 97.59606 | 31750 ft | 421 kts | 274° |
| 2026-05-05 07:46 | 31.12032 | 97.52795 | 31746 ft | 422 kts | 274° |
| 2026-05-05 07:47 | 31.12551 | 97.45982 | 31737 ft | 421 kts | 273° |
| 2026-05-05 07:47 | 31.12976 | 97.40320 | 31730 ft | 421 kts | 273° |
| 2026-05-05 07:48 | 31.13487 | 97.33509 | 31728 ft | 421 kts | 273° |
| 2026-05-05 07:48 | 31.14077 | 97.25593 | 31726 ft | 421 kts | 273° |
| 2026-05-05 07:49 | 31.14486 | 97.18780 | 31725 ft | 420 kts | 267° |
| 2026-05-05 07:49 | 31.13489 | 97.12105 | 31716 ft | 418 kts | 256° |
| 2026-05-05 07:50 | 31.12296 | 97.06578 | 31738 ft | 419 kts | 256° |
| 2026-05-05 07:50 | 31.10891 | 97.00028 | 31750 ft | 419 kts | 256° |
| 2026-05-05 07:51 | 31.09479 | 96.93430 | 31764 ft | 420 kts | 256° |
| 2026-05-05 07:51 | 31.08056 | 96.86822 | 31779 ft | 420 kts | 256° |
| 2026-05-05 07:52 | 31.06629 | 96.80209 | 31794 ft | 422 kts | 256° |
| 2026-05-05 07:52 | 31.05198 | 96.73578 | 31802 ft | 421 kts | 256° |
| 2026-05-05 07:53 | 31.03761 | 96.66956 | 31810 ft | 421 kts | 256° |
| 2026-05-05 07:53 | 31.02313 | 96.60331 | 31821 ft | 422 kts | 256° |
| 2026-05-05 07:54 | 31.00861 | 96.53694 | 31830 ft | 423 kts | 256° |
| 2026-05-05 07:54 | 30.99409 | 96.47047 | 31836 ft | 423 kts | 256° |
| 2026-05-05 07:55 | 30.97964 | 96.40443 | 31851 ft | 424 kts | 256° |
| 2026-05-05 07:55 | 30.96551 | 96.33775 | 31860 ft | 424 kts | 257° |
| 2026-05-05 07:56 | 30.95156 | 96.27105 | 31866 ft | 424 kts | 257° |
| 2026-05-05 07:56 | 30.93749 | 96.20430 | 31870 ft | 425 kts | 257° |
| 2026-05-05 07:57 | 30.92329 | 96.13752 | 31880 ft | 424 kts | 256° |
| 2026-05-05 07:57 | 30.90899 | 96.07089 | 31883 ft | 424 kts | 256° |
| 2026-05-05 07:58 | 30.90316 | 96.04378 | 31896 ft | 424 kts | 257° |